Terminal Aerodrome Forecast
Issued by NWS Grand Forks, ND

Home | Current Version | Previous Version | Text Only | Print | Product List | Glossary On
Versions: 1 2 3 4 5 6 7 8 9 10 11 12 13 14 15 16 17 18 19 20
000
FTUS43 KFGF 252321
TAFGFK
TAF
KGFK 252321Z 2600/2624 31015G22KT P6SM -RA FEW035 OVC050
     FM260100 30015KT P6SM VCSH OVC060
     FM260200 30014KT P6SM BKN060
     FM260500 29014KT P6SM SCT130
     FM261800 32020G28KT P6SM FEW130=

USA.gov is the U.S. government's official web portal to all federal, state and local government web resources and services.